Clearwater, NE (68726)

6:15 PM CDT on July 25, 2016 (GMT -0500)
KNENELIG1 | | Change Station

Elev 1750 ft 42.13 °N, 98.03 °W | Updated 55 seconds ago

Clear
Clear
84.9 °F
Feels Like 85 °F
N
2.0
Wind Variable Wind from SE
Gusts 7.0 mph

Today
High -- | Low -- °F
--% Chance of Precip.
Yesterday
High -- | Low -- °F
Precip. -- in
Pressure 30.07 in
Visibility 10.0 miles
Clouds Clear
Heat Index 85 °F
Dew Point 61 °F
Humidity 45%
Rainfall 0.00 in
Snow Depth Not available.
6:19 AM 8:58 PM
Waning Gibbous, 61% visible
METAR KBVN 252255Z AUTO 15006KT 10SM CLR 29/17 A3007 RMK AO2 T02850170
Pressure 30.07 in
Visibility 10.0 miles
Clouds Clear
Heat Index 85 °F
Dew Point 61 °F
Humidity 45%
Rainfall 0.00 in
Snow Depth Not available.
6:19 AM 8:58 PM
Waning Gibbous, 61% visible
METAR KBVN 252255Z AUTO 15006KT 10SM CLR 29/17 A3007 RMK AO2 T02850170

10-Day Weather Forecast

Almanac

Astronomy

Jul. 25, 2016 Rise Set
Actual Time
Civil Twilight
Nautical Twilight
Astronomical Twilight
Moon
Length of Visible Light
Length of Day
Tomorrow will be .
, % of the Moon is Illuminated

Today's Extremes

State Highs State Lows

Community

WunderPhotos

Upload Photos

1,927,441 photos uploaded!

WunderBlog® & News

Nearby

Air Quality

  Air Quality AQ Index Pollutant
Not available.

Snow Depth

Station Depth Elevation

Earthquake Activity

City Distance Mag. Time & Date
Minimum magnitude displayed is 2.5.

Coastal Water Temperatures

Place Temperature

Stations

Nearby Weather Stations

Station Location Temp. Windchill Dew Point Humidity Wind Precip. Elev Updated Type
                   

Watches & Warnings

There are currently no watches in effect.